sensor_id;sensor_type;location;lat;lon;timestamp;temperature;humidity
19868;DHT22;10096;51.112;6.776;2023-04-09T00:01:24;9.00;99.90
19868;DHT22;10096;51.112;6.776;2023-04-09T00:03:53;9.10;99.90
19868;DHT22;10096;51.112;6.776;2023-04-09T00:06:19;9.10;99.90
19868;DHT22;10096;51.112;6.776;2023-04-09T00:08:46;9.10;99.90
19868;DHT22;10096;51.112;6.776;2023-04-09T00:11:13;9.10;99.90
19868;DHT22;10096;51.112;6.776;2023-04-09T00:13:40;9.00;99.90
19868;DHT22;10096;51.112;6.776;2023-04-09T00:16:07;8.90;99.90
19868;DHT22;10096;51.112;6.776;2023-04-09T00:18:34;8.80;99.90
19868;DHT22;10096;51.112;6.776;2023-04-09T00:21:03;8.70;99.90
19868;DHT22;10096;51.112;6.776;2023-04-09T00:23:33;8.60;99.90
19868;DHT22;10096;51.112;6.776;2023-04-09T00:26:00;8.50;99.90
19868;DHT22;10096;51.112;6.776;2023-04-09T00:28:27;8.30;99.90
19868;DHT22;10096;51.112;6.776;2023-04-09T00:30:54;8.20;99.90
19868;DHT22;10096;51.112;6.776;2023-04-09T00:33:21;8.00;99.90
19868;DHT22;10096;51.112;6.776;2023-04-09T00:35:51;8.10;99.90
19868;DHT22;10096;51.112;6.776;2023-04-09T00:38:19;7.80;1.00
19868;DHT22;10096;51.112;6.776;2023-04-09T00:40:48;7.70;1.00
19868;DHT22;10096;51.112;6.776;2023-04-09T00:43:15;7.90;1.00
19868;DHT22;10096;51.112;6.776;2023-04-09T00:45:42;7.50;99.90
19868;DHT22;10096;51.112;6.776;2023-04-09T00:48:09;7.40;1.00
19868;DHT22;10096;51.112;6.776;2023-04-09T00:50:36;7.30;1.00
19868;DHT22;10096;51.112;6.776;2023-04-09T00:53:04;7.30;1.00
19868;DHT22;10096;51.112;6.776;2023-04-09T00:55:33;7.20;1.00
19868;DHT22;10096;51.112;6.776;2023-04-09T00:58:01;7.20;1.00
19868;DHT22;10096;51.112;6.776;2023-04-09T01:00:28;7.10;1.00
19868;DHT22;10096;51.112;6.776;2023-04-09T01:02:56;7.10;1.00
19868;DHT22;10096;51.112;6.776;2023-04-09T01:05:29;7.10;1.00
19868;DHT22;10096;51.112;6.776;2023-04-09T01:08:03;7.20;1.00
19868;DHT22;10096;51.112;6.776;2023-04-09T01:10:36;7.10;1.00
19868;DHT22;10096;51.112;6.776;2023-04-09T01:13:10;7.00;1.00
19868;DHT22;10096;51.112;6.776;2023-04-09T01:15:40;6.90;25.30
19868;DHT22;10096;51.112;6.776;2023-04-09T01:18:12;6.90;8.50
19868;DHT22;10096;51.112;6.776;2023-04-09T01:20:48;6.90;99.90
19868;DHT22;10096;51.112;6.776;2023-04-09T01:23:25;6.80;99.90
19868;DHT22;10096;51.112;6.776;2023-04-09T01:26:03;6.90;99.90
19868;DHT22;10096;51.112;6.776;2023-04-09T01:28:38;7.10;99.90
19868;DHT22;10096;51.112;6.776;2023-04-09T01:31:10;6.80;99.90
19868;DHT22;10096;51.112;6.776;2023-04-09T01:33:38;7.10;99.90
19868;DHT22;10096;51.112;6.776;2023-04-09T01:36:08;7.00;99.90
19868;DHT22;10096;51.112;6.776;2023-04-09T01:38:38;6.90;99.90
19868;DHT22;10096;51.112;6.776;2023-04-09T01:41:07;7.00;99.90
19868;DHT22;10096;51.112;6.776;2023-04-09T01:43:36;7.00;62.50
19868;DHT22;10096;51.112;6.776;2023-04-09T01:46:04;7.10;79.70
19868;DHT22;10096;51.112;6.776;2023-04-09T01:48:32;7.30;18.50
19868;DHT22;10096;51.112;6.776;2023-04-09T01:51:00;7.50;1.00
19868;DHT22;10096;51.112;6.776;2023-04-09T01:53:27;7.50;1.00
19868;DHT22;10096;51.112;6.776;2023-04-09T01:55:55;7.50;1.00
19868;DHT22;10096;51.112;6.776;2023-04-09T01:58:23;7.50;1.00
19868;DHT22;10096;51.112;6.776;2023-04-09T02:00:56;7.60;1.00
19868;DHT22;10096;51.112;6.776;2023-04-09T02:03:27;8.00;1.00
19868;DHT22;10096;51.112;6.776;2023-04-09T02:06:02;7.70;1.00
19868;DHT22;10096;51.112;6.776;2023-04-09T02:08:33;7.70;1.00
19868;DHT22;10096;51.112;6.776;2023-04-09T02:11:06;7.80;99.90
19868;DHT22;10096;51.112;6.776;2023-04-09T02:13:36;8.00;99.90
19868;DHT22;10096;51.112;6.776;2023-04-09T02:16:07;7.90;99.90
19868;DHT22;10096;51.112;6.776;2023-04-09T02:18:35;7.90;99.90
19868;DHT22;10096;51.112;6.776;2023-04-09T02:21:02;7.90;99.90
19868;DHT22;10096;51.112;6.776;2023-04-09T02:23:31;8.00;99.90
19868;DHT22;10096;51.112;6.776;2023-04-09T02:26:00;8.00;99.90
19868;DHT22;10096;51.112;6.776;2023-04-09T02:28:27;8.00;99.90
19868;DHT22;10096;51.112;6.776;2023-04-09T02:30:53;8.10;99.90
19868;DHT22;10096;51.112;6.776;2023-04-09T02:33:22;7.90;99.90
19868;DHT22;10096;51.112;6.776;2023-04-09T02:35:49;7.70;99.90
19868;DHT22;10096;51.112;6.776;2023-04-09T02:38:16;7.60;99.90
19868;DHT22;10096;51.112;6.776;2023-04-09T02:40:42;7.50;99.90
19868;DHT22;10096;51.112;6.776;2023-04-09T02:43:12;7.50;99.90
19868;DHT22;10096;51.112;6.776;2023-04-09T02:45:39;7.40;99.90
19868;DHT22;10096;51.112;6.776;2023-04-09T02:48:07;7.30;99.90
19868;DHT22;10096;51.112;6.776;2023-04-09T02:50:35;7.20;99.90
19868;DHT22;10096;51.112;6.776;2023-04-09T02:53:02;7.10;99.90
19868;DHT22;10096;51.112;6.776;2023-04-09T02:55:29;7.00;99.90
19868;DHT22;10096;51.112;6.776;2023-04-09T02:57:56;6.90;99.90
19868;DHT22;10096;51.112;6.776;2023-04-09T03:00:22;6.90;99.90
19868;DHT22;10096;51.112;6.776;2023-04-09T03:02:49;6.90;1.00
19868;DHT22;10096;51.112;6.776;2023-04-09T03:05:16;6.90;99.90
19868;DHT22;10096;51.112;6.776;2023-04-09T03:07:45;6.90;99.90
19868;DHT22;10096;51.112;6.776;2023-04-09T03:10:12;7.00;99.90
19868;DHT22;10096;51.112;6.776;2023-04-09T03:12:39;6.80;99.90
19868;DHT22;10096;51.112;6.776;2023-04-09T03:15:09;6.80;1.00
19868;DHT22;10096;51.112;6.776;2023-04-09T03:17:36;6.80;99.90
19868;DHT22;10096;51.112;6.776;2023-04-09T03:20:05;6.70;99.90
19868;DHT22;10096;51.112;6.776;2023-04-09T03:22:35;6.70;1.00
19868;DHT22;10096;51.112;6.776;2023-04-09T03:25:05;6.70;1.00
19868;DHT22;10096;51.112;6.776;2023-04-09T03:27:32;6.60;1.00
19868;DHT22;10096;51.112;6.776;2023-04-09T03:29:59;6.60;1.00
19868;DHT22;10096;51.112;6.776;2023-04-09T03:32:26;6.60;1.00
19868;DHT22;10096;51.112;6.776;2023-04-09T03:34:54;6.80;1.00
19868;DHT22;10096;51.112;6.776;2023-04-09T03:37:21;6.50;1.00
19868;DHT22;10096;51.112;6.776;2023-04-09T03:39:48;6.50;1.00
19868;DHT22;10096;51.112;6.776;2023-04-09T03:42:16;6.40;1.00
19868;DHT22;10096;51.112;6.776;2023-04-09T03:44:43;6.30;1.00
19868;DHT22;10096;51.112;6.776;2023-04-09T03:47:11;6.20;1.00
19868;DHT22;10096;51.112;6.776;2023-04-09T03:49:38;6.10;1.00
19868;DHT22;10096;51.112;6.776;2023-04-09T03:52:05;6.00;1.00
19868;DHT22;10096;51.112;6.776;2023-04-09T03:54:32;5.90;1.00
19868;DHT22;10096;51.112;6.776;2023-04-09T03:56:59;5.90;1.00
19868;DHT22;10096;51.112;6.776;2023-04-09T03:59:29;5.90;1.00
19868;DHT22;10096;51.112;6.776;2023-04-09T04:01:56;6.00;1.00
19868;DHT22;10096;51.112;6.776;2023-04-09T04:04:23;5.90;1.00
19868;DHT22;10096;51.112;6.776;2023-04-09T04:06:50;5.90;2.40
19868;DHT22;10096;51.112;6.776;2023-04-09T04:09:17;6.20;1.00
19868;DHT22;10096;51.112;6.776;2023-04-09T04:11:44;5.90;1.00
19868;DHT22;10096;51.112;6.776;2023-04-09T04:14:11;5.90;1.00
19868;DHT22;10096;51.112;6.776;2023-04-09T04:16:40;5.90;1.00
19868;DHT22;10096;51.112;6.776;2023-04-09T04:19:07;5.80;21.70
19868;DHT22;10096;51.112;6.776;2023-04-09T04:21:34;5.90;99.90
19868;DHT22;10096;51.112;6.776;2023-04-09T04:24:01;6.00;99.90
19868;DHT22;10096;51.112;6.776;2023-04-09T04:26:28;5.90;99.90
19868;DHT22;10096;51.112;6.776;2023-04-09T04:28:54;5.90;99.90
19868;DHT22;10096;51.112;6.776;2023-04-09T04:31:21;5.80;88.20
19868;DHT22;10096;51.112;6.776;2023-04-09T04:33:50;5.80;24.10
19868;DHT22;10096;51.112;6.776;2023-04-09T04:36:17;5.80;1.00
19868;DHT22;10096;51.112;6.776;2023-04-09T04:38:44;6.00;1.00
19868;DHT22;10096;51.112;6.776;2023-04-09T04:41:11;5.90;1.00
19868;DHT22;10096;51.112;6.776;2023-04-09T04:43:38;5.80;1.00
19868;DHT22;10096;51.112;6.776;2023-04-09T04:46:05;6.10;1.00
19868;DHT22;10096;51.112;6.776;2023-04-09T04:48:32;5.80;1.00
19868;DHT22;10096;51.112;6.776;2023-04-09T04:51:01;5.80;1.00
19868;DHT22;10096;51.112;6.776;2023-04-09T04:53:28;5.90;1.00
19868;DHT22;10096;51.112;6.776;2023-04-09T04:55:55;5.90;1.00
19868;DHT22;10096;51.112;6.776;2023-04-09T04:58:21;5.90;1.00
19868;DHT22;10096;51.112;6.776;2023-04-09T05:00:48;5.80;1.00
19868;DHT22;10096;51.112;6.776;2023-04-09T05:03:15;6.00;1.00
19868;DHT22;10096;51.112;6.776;2023-04-09T05:05:42;6.20;1.00
19868;DHT22;10096;51.112;6.776;2023-04-09T05:08:11;6.60;1.00
19868;DHT22;10096;51.112;6.776;2023-04-09T05:10:40;6.40;1.00
19868;DHT22;10096;51.112;6.776;2023-04-09T05:13:07;6.20;99.90
19868;DHT22;10096;51.112;6.776;2023-04-09T05:15:37;6.30;99.90
19868;DHT22;10096;51.112;6.776;2023-04-09T05:18:05;6.40;99.90
19868;DHT22;10096;51.112;6.776;2023-04-09T05:20:32;7.00;99.90
19868;DHT22;10096;51.112;6.776;2023-04-09T05:22:59;7.70;99.90
19868;DHT22;10096;51.112;6.776;2023-04-09T05:25:28;8.30;99.90
19868;DHT22;10096;51.112;6.776;2023-04-09T05:27:55;9.30;1.00
19868;DHT22;10096;51.112;6.776;2023-04-09T05:30:22;9.60;1.00
19868;DHT22;10096;51.112;6.776;2023-04-09T05:32:49;10.30;1.00
19868;DHT22;10096;51.112;6.776;2023-04-09T05:35:16;10.80;1.00
19868;DHT22;10096;51.112;6.776;2023-04-09T05:37:43;11.10;1.00
19868;DHT22;10096;51.112;6.776;2023-04-09T05:40:11;11.20;1.00
19868;DHT22;10096;51.112;6.776;2023-04-09T05:42:39;10.50;1.00
19868;DHT22;10096;51.112;6.776;2023-04-09T05:45:07;9.80;1.00
19868;DHT22;10096;51.112;6.776;2023-04-09T05:47:34;9.00;1.00
19868;DHT22;10096;51.112;6.776;2023-04-09T05:50:01;9.00;1.00
19868;DHT22;10096;51.112;6.776;2023-04-09T05:52:28;8.80;1.00
19868;DHT22;10096;51.112;6.776;2023-04-09T05:54:55;8.80;1.00
19868;DHT22;10096;51.112;6.776;2023-04-09T05:57:22;9.40;1.00
19868;DHT22;10096;51.112;6.776;2023-04-09T05:59:50;10.60;1.00
19868;DHT22;10096;51.112;6.776;2023-04-09T06:02:17;11.90;1.00
19868;DHT22;10096;51.112;6.776;2023-04-09T06:04:44;12.90;1.00
19868;DHT22;10096;51.112;6.776;2023-04-09T06:07:11;13.70;1.00
19868;DHT22;10096;51.112;6.776;2023-04-09T06:09:38;14.20;99.90
19868;DHT22;10096;51.112;6.776;2023-04-09T06:12:04;14.90;99.90
19868;DHT22;10096;51.112;6.776;2023-04-09T06:14:31;15.60;99.90
19868;DHT22;10096;51.112;6.776;2023-04-09T06:17:00;15.90;99.90
19868;DHT22;10096;51.112;6.776;2023-04-09T06:19:27;16.20;99.90
19868;DHT22;10096;51.112;6.776;2023-04-09T06:21:54;16.60;99.90
19868;DHT22;10096;51.112;6.776;2023-04-09T06:24:21;17.00;99.90
19868;DHT22;10096;51.112;6.776;2023-04-09T06:26:48;17.20;99.90
19868;DHT22;10096;51.112;6.776;2023-04-09T06:29:15;17.40;99.90
19868;DHT22;10096;51.112;6.776;2023-04-09T06:31:42;17.30;99.90
19868;DHT22;10096;51.112;6.776;2023-04-09T06:34:10;17.50;99.90
19868;DHT22;10096;51.112;6.776;2023-04-09T06:36:37;17.70;99.90
19868;DHT22;10096;51.112;6.776;2023-04-09T06:39:05;17.60;99.90
19868;DHT22;10096;51.112;6.776;2023-04-09T06:41:32;17.40;99.90
19868;DHT22;10096;51.112;6.776;2023-04-09T06:43:58;17.20;99.90
19868;DHT22;10096;51.112;6.776;2023-04-09T06:46:26;17.40;99.90
19868;DHT22;10096;51.112;6.776;2023-04-09T06:48:53;16.90;99.90
19868;DHT22;10096;51.112;6.776;2023-04-09T06:51:22;17.20;99.90
19868;DHT22;10096;51.112;6.776;2023-04-09T06:53:48;17.50;99.90
19868;DHT22;10096;51.112;6.776;2023-04-09T06:56:15;18.00;99.90
19868;DHT22;10096;51.112;6.776;2023-04-09T06:58:42;18.00;99.90
19868;DHT22;10096;51.112;6.776;2023-04-09T07:01:09;18.10;99.90
19868;DHT22;10096;51.112;6.776;2023-04-09T07:03:36;18.00;99.90
19868;DHT22;10096;51.112;6.776;2023-04-09T07:06:03;18.20;99.90
19868;DHT22;10096;51.112;6.776;2023-04-09T07:08:32;18.40;99.90
19868;DHT22;10096;51.112;6.776;2023-04-09T07:10:59;18.30;99.90
19868;DHT22;10096;51.112;6.776;2023-04-09T07:13:26;18.40;99.90
19868;DHT22;10096;51.112;6.776;2023-04-09T07:15:55;18.30;99.90
19868;DHT22;10096;51.112;6.776;2023-04-09T07:18:22;18.10;99.90
19868;DHT22;10096;51.112;6.776;2023-04-09T07:20:51;17.90;99.90
19868;DHT22;10096;51.112;6.776;2023-04-09T07:23:18;18.30;99.90
19868;DHT22;10096;51.112;6.776;2023-04-09T07:25:47;18.60;99.90
19868;DHT22;10096;51.112;6.776;2023-04-09T07:28:14;19.30;99.90
19868;DHT22;10096;51.112;6.776;2023-04-09T07:30:41;19.50;99.90
19868;DHT22;10096;51.112;6.776;2023-04-09T07:33:08;19.50;99.90
19868;DHT22;10096;51.112;6.776;2023-04-09T07:35:35;19.80;99.90
19868;DHT22;10096;51.112;6.776;2023-04-09T07:38:02;19.70;99.90
19868;DHT22;10096;51.112;6.776;2023-04-09T07:40:29;19.00;99.90
19868;DHT22;10096;51.112;6.776;2023-04-09T07:42:58;18.60;99.90
19868;DHT22;10096;51.112;6.776;2023-04-09T07:45:25;18.60;99.90
19868;DHT22;10096;51.112;6.776;2023-04-09T07:47:54;18.80;99.90
19868;DHT22;10096;51.112;6.776;2023-04-09T07:50:21;18.60;99.90
19868;DHT22;10096;51.112;6.776;2023-04-09T07:52:47;18.50;99.90
19868;DHT22;10096;51.112;6.776;2023-04-09T07:55:17;18.70;99.90
19868;DHT22;10096;51.112;6.776;2023-04-09T07:57:44;19.00;99.90
19868;DHT22;10096;51.112;6.776;2023-04-09T08:00:15;19.30;99.90
19868;DHT22;10096;51.112;6.776;2023-04-09T08:02:44;19.70;99.90
19868;DHT22;10096;51.112;6.776;2023-04-09T08:05:11;19.80;99.90
19868;DHT22;10096;51.112;6.776;2023-04-09T08:07:38;19.80;99.90
19868;DHT22;10096;51.112;6.776;2023-04-09T08:10:06;19.80;99.90
19868;DHT22;10096;51.112;6.776;2023-04-09T08:12:38;19.50;99.90
19868;DHT22;10096;51.112;6.776;2023-04-09T08:15:06;19.30;99.90
19868;DHT22;10096;51.112;6.776;2023-04-09T08:17:34;18.80;99.90
19868;DHT22;10096;51.112;6.776;2023-04-09T08:20:01;18.50;99.90
19868;DHT22;10096;51.112;6.776;2023-04-09T08:22:29;18.30;99.90
19868;DHT22;10096;51.112;6.776;2023-04-09T08:24:56;17.90;99.90
19868;DHT22;10096;51.112;6.776;2023-04-09T08:27:23;17.90;99.90
19868;DHT22;10096;51.112;6.776;2023-04-09T08:29:51;18.00;99.90
19868;DHT22;10096;51.112;6.776;2023-04-09T08:32:18;17.90;99.90
19868;DHT22;10096;51.112;6.776;2023-04-09T08:34:46;18.30;99.90
19868;DHT22;10096;51.112;6.776;2023-04-09T08:37:14;18.50;99.90
19868;DHT22;10096;51.112;6.776;2023-04-09T08:39:41;18.90;99.90
19868;DHT22;10096;51.112;6.776;2023-04-09T08:42:09;19.00;99.90
19868;DHT22;10096;51.112;6.776;2023-04-09T08:44:37;18.90;99.90
19868;DHT22;10096;51.112;6.776;2023-04-09T08:47:07;18.80;99.90
19868;DHT22;10096;51.112;6.776;2023-04-09T08:49:36;18.20;99.90
19868;DHT22;10096;51.112;6.776;2023-04-09T08:52:06;17.50;99.90
19868;DHT22;10096;51.112;6.776;2023-04-09T08:54:33;17.00;99.90
19868;DHT22;10096;51.112;6.776;2023-04-09T08:57:03;16.40;99.90
19868;DHT22;10096;51.112;6.776;2023-04-09T08:59:31;16.30;99.90
19868;DHT22;10096;51.112;6.776;2023-04-09T09:02:08;16.00;99.90
19868;DHT22;10096;51.112;6.776;2023-04-09T09:04:45;16.20;99.90
19868;DHT22;10096;51.112;6.776;2023-04-09T09:07:15;15.90;99.90
19868;DHT22;10096;51.112;6.776;2023-04-09T09:09:53;16.10;99.90
19868;DHT22;10096;51.112;6.776;2023-04-09T09:12:34;15.90;99.90
19868;DHT22;10096;51.112;6.776;2023-04-09T09:15:03;15.80;99.90
19868;DHT22;10096;51.112;6.776;2023-04-09T09:17:30;15.70;99.90
19868;DHT22;10096;51.112;6.776;2023-04-09T09:19:57;15.70;99.90
19868;DHT22;10096;51.112;6.776;2023-04-09T09:22:26;15.60;99.90
19868;DHT22;10096;51.112;6.776;2023-04-09T09:24:53;15.80;99.90
19868;DHT22;10096;51.112;6.776;2023-04-09T09:27:32;15.80;99.90
19868;DHT22;10096;51.112;6.776;2023-04-09T09:30:01;15.80;99.90
19868;DHT22;10096;51.112;6.776;2023-04-09T09:32:33;15.90;99.90
19868;DHT22;10096;51.112;6.776;2023-04-09T09:35:01;15.70;99.90
19868;DHT22;10096;51.112;6.776;2023-04-09T09:37:32;15.60;99.90
19868;DHT22;10096;51.112;6.776;2023-04-09T09:39:59;15.60;99.90
19868;DHT22;10096;51.112;6.776;2023-04-09T09:53:13;15.60;99.90
19868;DHT22;10096;51.112;6.776;2023-04-09T09:55:46;16.00;99.90
19868;DHT22;10096;51.112;6.776;2023-04-09T09:58:16;16.20;99.90
19868;DHT22;10096;51.112;6.776;2023-04-09T10:00:46;15.90;99.90
19868;DHT22;10096;51.112;6.776;2023-04-09T10:03:18;16.10;99.90
19868;DHT22;10096;51.112;6.776;2023-04-09T10:05:47;15.80;99.90
19868;DHT22;10096;51.112;6.776;2023-04-09T10:08:17;15.80;99.90
19868;DHT22;10096;51.112;6.776;2023-04-09T10:10:44;15.80;99.90
19868;DHT22;10096;51.112;6.776;2023-04-09T10:13:19;15.80;99.90
19868;DHT22;10096;51.112;6.776;2023-04-09T10:15:47;15.40;99.90
19868;DHT22;10096;51.112;6.776;2023-04-09T10:18:15;15.40;99.90
19868;DHT22;10096;51.112;6.776;2023-04-09T10:20:48;15.80;99.90
19868;DHT22;10096;51.112;6.776;2023-04-09T10:23:26;15.50;99.90
19868;DHT22;10096;51.112;6.776;2023-04-09T10:25:56;15.30;99.90
19868;DHT22;10096;51.112;6.776;2023-04-09T10:28:23;15.60;99.90
19868;DHT22;10096;51.112;6.776;2023-04-09T10:30:52;16.00;99.90
19868;DHT22;10096;51.112;6.776;2023-04-09T10:33:22;15.70;99.90
19868;DHT22;10096;51.112;6.776;2023-04-09T10:35:51;15.50;99.90
19868;DHT22;10096;51.112;6.776;2023-04-09T10:38:32;15.60;99.90
19868;DHT22;10096;51.112;6.776;2023-04-09T10:41:06;15.60;99.90
19868;DHT22;10096;51.112;6.776;2023-04-09T10:43:34;15.60;99.90
19868;DHT22;10096;51.112;6.776;2023-04-09T10:46:03;15.80;99.90
19868;DHT22;10096;51.112;6.776;2023-04-09T10:48:32;16.10;99.90
19868;DHT22;10096;51.112;6.776;2023-04-09T10:51:02;16.30;99.90
19868;DHT22;10096;51.112;6.776;2023-04-09T10:53:32;16.50;99.90
19868;DHT22;10096;51.112;6.776;2023-04-09T10:55:59;16.50;99.90
19868;DHT22;10096;51.112;6.776;2023-04-09T10:58:27;16.70;99.90
19868;DHT22;10096;51.112;6.776;2023-04-09T11:00:54;16.70;99.90
19868;DHT22;10096;51.112;6.776;2023-04-09T11:03:23;17.00;99.90
19868;DHT22;10096;51.112;6.776;2023-04-09T11:05:54;16.80;99.90
19868;DHT22;10096;51.112;6.776;2023-04-09T11:08:22;16.80;99.90
19868;DHT22;10096;51.112;6.776;2023-04-09T11:10:50;16.60;99.90
19868;DHT22;10096;51.112;6.776;2023-04-09T11:13:21;16.30;99.90
19868;DHT22;10096;51.112;6.776;2023-04-09T11:15:48;16.10;99.90
19868;DHT22;10096;51.112;6.776;2023-04-09T11:18:19;16.30;99.90
19868;DHT22;10096;51.112;6.776;2023-04-09T11:20:46;16.30;99.90
19868;DHT22;10096;51.112;6.776;2023-04-09T11:23:14;16.30;99.90
19868;DHT22;10096;51.112;6.776;2023-04-09T11:25:41;16.50;99.90
19868;DHT22;10096;51.112;6.776;2023-04-09T11:28:09;16.90;99.90
19868;DHT22;10096;51.112;6.776;2023-04-09T11:30:36;17.10;99.90
19868;DHT22;10096;51.112;6.776;2023-04-09T11:33:04;16.80;99.90
19868;DHT22;10096;51.112;6.776;2023-04-09T11:35:33;16.40;99.90
19868;DHT22;10096;51.112;6.776;2023-04-09T11:38:05;16.40;99.90
19868;DHT22;10096;51.112;6.776;2023-04-09T11:40:32;16.60;99.90
19868;DHT22;10096;51.112;6.776;2023-04-09T11:43:00;16.80;99.90
19868;DHT22;10096;51.112;6.776;2023-04-09T11:45:29;16.90;99.90
19868;DHT22;10096;51.112;6.776;2023-04-09T11:47:57;17.20;99.90
19868;DHT22;10096;51.112;6.776;2023-04-09T11:50:24;17.40;99.90
19868;DHT22;10096;51.112;6.776;2023-04-09T11:52:51;17.30;99.90
19868;DHT22;10096;51.112;6.776;2023-04-09T11:55:25;17.40;99.90
19868;DHT22;10096;51.112;6.776;2023-04-09T11:57:56;17.40;99.90
19868;DHT22;10096;51.112;6.776;2023-04-09T12:00:26;17.40;99.90
19868;DHT22;10096;51.112;6.776;2023-04-09T12:03:01;17.40;99.90
19868;DHT22;10096;51.112;6.776;2023-04-09T12:05:37;17.30;99.90
19868;DHT22;10096;51.112;6.776;2023-04-09T12:08:07;16.90;99.90
19868;DHT22;10096;51.112;6.776;2023-04-09T12:10:37;16.70;99.90
19868;DHT22;10096;51.112;6.776;2023-04-09T12:13:06;16.50;99.90
19868;DHT22;10096;51.112;6.776;2023-04-09T12:15:37;16.50;99.90
19868;DHT22;10096;51.112;6.776;2023-04-09T12:18:09;16.70;99.90
19868;DHT22;10096;51.112;6.776;2023-04-09T12:20:38;16.50;99.90
19868;DHT22;10096;51.112;6.776;2023-04-09T12:23:06;16.50;99.90
19868;DHT22;10096;51.112;6.776;2023-04-09T12:25:35;16.70;99.90
19868;DHT22;10096;51.112;6.776;2023-04-09T12:28:03;17.30;99.90
19868;DHT22;10096;51.112;6.776;2023-04-09T12:30:30;17.10;99.90
19868;DHT22;10096;51.112;6.776;2023-04-09T12:32:58;17.20;99.90
19868;DHT22;10096;51.112;6.776;2023-04-09T12:35:26;17.30;99.90
19868;DHT22;10096;51.112;6.776;2023-04-09T12:37:54;17.50;99.90
19868;DHT22;10096;51.112;6.776;2023-04-09T12:40:21;17.00;99.90
19868;DHT22;10096;51.112;6.776;2023-04-09T12:42:48;17.00;99.90
19868;DHT22;10096;51.112;6.776;2023-04-09T12:45:17;17.20;99.90
19868;DHT22;10096;51.112;6.776;2023-04-09T12:47:44;16.90;99.90
19868;DHT22;10096;51.112;6.776;2023-04-09T12:50:12;16.90;99.90
19868;DHT22;10096;51.112;6.776;2023-04-09T12:52:43;16.80;99.90
19868;DHT22;10096;51.112;6.776;2023-04-09T12:55:11;16.90;99.90
19868;DHT22;10096;51.112;6.776;2023-04-09T12:57:40;16.90;99.90
19868;DHT22;10096;51.112;6.776;2023-04-09T13:00:11;16.60;99.90
19868;DHT22;10096;51.112;6.776;2023-04-09T13:02:39;16.70;99.90
19868;DHT22;10096;51.112;6.776;2023-04-09T13:05:06;16.60;99.90
19868;DHT22;10096;51.112;6.776;2023-04-09T13:07:33;16.30;99.90
19868;DHT22;10096;51.112;6.776;2023-04-09T13:10:02;16.10;99.90
19868;DHT22;10096;51.112;6.776;2023-04-09T13:12:29;16.00;99.90
19868;DHT22;10096;51.112;6.776;2023-04-09T13:14:57;16.10;99.90
19868;DHT22;10096;51.112;6.776;2023-04-09T13:17:24;16.20;99.90
19868;DHT22;10096;51.112;6.776;2023-04-09T13:19:52;16.30;99.90
19868;DHT22;10096;51.112;6.776;2023-04-09T13:22:19;16.50;99.90
19868;DHT22;10096;51.112;6.776;2023-04-09T13:24:46;16.80;99.90
19868;DHT22;10096;51.112;6.776;2023-04-09T13:27:15;16.70;99.90
19868;DHT22;10096;51.112;6.776;2023-04-09T13:29:42;16.60;99.90
19868;DHT22;10096;51.112;6.776;2023-04-09T13:32:10;16.50;99.90
19868;DHT22;10096;51.112;6.776;2023-04-09T13:34:38;16.30;99.90
19868;DHT22;10096;51.112;6.776;2023-04-09T13:37:05;16.30;99.90
19868;DHT22;10096;51.112;6.776;2023-04-09T13:39:32;16.50;99.90
19868;DHT22;10096;51.112;6.776;2023-04-09T13:42:00;16.70;99.90
19868;DHT22;10096;51.112;6.776;2023-04-09T13:44:29;16.50;99.90
19868;DHT22;10096;51.112;6.776;2023-04-09T13:46:56;16.70;99.90
19868;DHT22;10096;51.112;6.776;2023-04-09T13:49:23;16.70;99.90
19868;DHT22;10096;51.112;6.776;2023-04-09T13:51:51;17.00;99.90
19868;DHT22;10096;51.112;6.776;2023-04-09T13:54:18;17.00;99.90
19868;DHT22;10096;51.112;6.776;2023-04-09T13:56:45;16.70;99.90
19868;DHT22;10096;51.112;6.776;2023-04-09T13:59:12;16.80;99.90
19868;DHT22;10096;51.112;6.776;2023-04-09T14:01:41;16.80;99.90
19868;DHT22;10096;51.112;6.776;2023-04-09T14:04:08;16.80;99.90
19868;DHT22;10096;51.112;6.776;2023-04-09T14:06:35;16.70;99.90
19868;DHT22;10096;51.112;6.776;2023-04-09T14:09:02;16.80;99.90
19868;DHT22;10096;51.112;6.776;2023-04-09T14:11:29;16.70;99.90
19868;DHT22;10096;51.112;6.776;2023-04-09T14:13:55;17.00;99.90
19868;DHT22;10096;51.112;6.776;2023-04-09T14:16:22;16.70;99.90
19868;DHT22;10096;51.112;6.776;2023-04-09T14:18:53;16.60;99.90
19868;DHT22;10096;51.112;6.776;2023-04-09T14:21:20;16.50;99.90
19868;DHT22;10096;51.112;6.776;2023-04-09T14:23:47;16.60;99.90
19868;DHT22;10096;51.112;6.776;2023-04-09T14:26:14;16.50;99.90
19868;DHT22;10096;51.112;6.776;2023-04-09T14:28:42;16.50;99.90
19868;DHT22;10096;51.112;6.776;2023-04-09T14:31:09;16.50;99.90
19868;DHT22;10096;51.112;6.776;2023-04-09T14:33:36;16.50;99.90
19868;DHT22;10096;51.112;6.776;2023-04-09T14:36:06;16.30;99.90
19868;DHT22;10096;51.112;6.776;2023-04-09T14:38:33;16.40;99.90
19868;DHT22;10096;51.112;6.776;2023-04-09T14:41:00;16.40;99.90
19868;DHT22;10096;51.112;6.776;2023-04-09T14:43:27;16.50;99.90
19868;DHT22;10096;51.112;6.776;2023-04-09T14:45:55;16.50;99.90
19868;DHT22;10096;51.112;6.776;2023-04-09T14:48:22;16.40;99.90
19868;DHT22;10096;51.112;6.776;2023-04-09T14:50:49;16.70;99.90
19868;DHT22;10096;51.112;6.776;2023-04-09T14:53:19;16.80;99.90
19868;DHT22;10096;51.112;6.776;2023-04-09T14:55:46;16.80;99.90
19868;DHT22;10096;51.112;6.776;2023-04-09T14:58:13;17.00;99.90
19868;DHT22;10096;51.112;6.776;2023-04-09T15:00:40;16.90;99.90
19868;DHT22;10096;51.112;6.776;2023-04-09T15:03:09;17.10;99.90
19868;DHT22;10096;51.112;6.776;2023-04-09T15:05:36;16.90;99.90
19868;DHT22;10096;51.112;6.776;2023-04-09T15:08:03;16.80;99.90
19868;DHT22;10096;51.112;6.776;2023-04-09T15:10:32;16.70;99.90
19868;DHT22;10096;51.112;6.776;2023-04-09T15:12:59;16.60;99.90
19868;DHT22;10096;51.112;6.776;2023-04-09T15:15:26;16.50;99.90
19868;DHT22;10096;51.112;6.776;2023-04-09T15:17:53;16.60;99.90
19868;DHT22;10096;51.112;6.776;2023-04-09T15:20:20;16.60;99.90
19868;DHT22;10096;51.112;6.776;2023-04-09T15:22:47;16.40;99.90
19868;DHT22;10096;51.112;6.776;2023-04-09T15:25:15;16.30;99.90
19868;DHT22;10096;51.112;6.776;2023-04-09T15:27:43;16.20;99.90
19868;DHT22;10096;51.112;6.776;2023-04-09T15:30:11;16.20;99.90
19868;DHT22;10096;51.112;6.776;2023-04-09T15:32:38;16.30;99.90
19868;DHT22;10096;51.112;6.776;2023-04-09T15:35:05;16.30;99.90
19868;DHT22;10096;51.112;6.776;2023-04-09T15:37:32;16.40;99.90
19868;DHT22;10096;51.112;6.776;2023-04-09T15:40:00;16.40;99.90
19868;DHT22;10096;51.112;6.776;2023-04-09T15:42:28;16.80;99.90
19868;DHT22;10096;51.112;6.776;2023-04-09T15:44:56;16.30;99.90
19868;DHT22;10096;51.112;6.776;2023-04-09T15:47:24;16.10;99.90
19868;DHT22;10096;51.112;6.776;2023-04-09T15:49:51;16.00;99.90
19868;DHT22;10096;51.112;6.776;2023-04-09T15:52:19;16.00;99.90
19868;DHT22;10096;51.112;6.776;2023-04-09T15:54:46;16.20;99.90
19868;DHT22;10096;51.112;6.776;2023-04-09T15:57:13;15.90;99.90